Time;durP1;ratioP1;P1;durP2;ratioP2;P2;SDS_P1;SDS_P2;PMS_P1;PMS_P2;Temp;Humidity;BMP_temperature;BMP_pressure;BME280_temperature;BME280_humidity;BME280_pressure;Samples;Min_cycle;Max_cycle;Signal;HPM_P1;HPM_P2
2021/12/30 00:00:26;;;;;;;1.13;0.73;;;;;;;3.54;100.00;99945.75;5044523;28;20561;-80
2021/12/30 00:02:59;;;;;;;0.70;0.60;;;;;;;3.57;100.00;99945.25;5044534;28;20049;-79
2021/12/30 00:05:35;;;;;;;1.77;0.60;;;;;;;3.52;100.00;99926.38;5051849;28;20052;-81
2021/12/30 00:08:09;;;;;;;1.20;0.70;;;;;;;3.60;100.00;99935.06;5040434;28;20753;-80
2021/12/30 00:10:37;;;;;;;2.20;0.98;;;;;;;3.54;100.00;99942.28;5054399;28;20065;-79
2021/12/30 00:13:06;;;;;;;1.73;0.70;;;;;;;3.57;100.00;99939.06;5036963;28;20042;-81
2021/12/30 00:15:39;;;;;;;1.00;0.60;;;;;;;3.52;100.00;99941.69;5042378;28;20040;-80
2021/12/30 00:18:13;;;;;;;1.17;0.60;;;;;;;3.57;100.00;99949.84;5039943;28;20417;-80
2021/12/30 00:20:42;;;;;;;0.57;0.50;;;;;;;3.52;100.00;99947.91;5043391;28;20053;-81
2021/12/30 00:23:15;;;;;;;0.40;0.40;;;;;;;3.58;100.00;99949.56;5057921;28;20053;-79
2021/12/30 00:25:49;;;;;;;0.40;0.40;;;;;;;3.57;100.00;99941.75;5051559;28;20036;-80
2021/12/30 00:28:21;;;;;;;2.08;0.80;;;;;;;3.68;100.00;99937.31;5044206;28;20512;-80
2021/12/30 00:30:55;;;;;;;0.82;0.50;;;;;;;3.67;100.00;99957.19;5049315;28;20057;-79
2021/12/30 00:33:32;;;;;;;0.45;0.40;;;;;;;3.68;100.00;99962.34;5041030;28;20064;-78
2021/12/30 00:36:02;;;;;;;0.52;0.50;;;;;;;3.68;100.00;99962.34;5054491;28;20394;-80
2021/12/30 00:38:36;;;;;;;1.42;0.70;;;;;;;3.64;100.00;99963.91;5040385;28;20056;-80
2021/12/30 00:41:10;;;;;;;0.63;0.50;;;;;;;3.71;100.00;99956.44;5048340;28;20049;-81
2021/12/30 00:43:43;;;;;;;0.50;0.50;;;;;;;3.65;100.00;99962.03;5044911;28;20053;-78
2021/12/30 00:46:16;;;;;;;0.30;0.30;;;;;;;3.80;100.00;99972.97;5045319;28;20095;-81
2021/12/30 00:48:50;;;;;;;0.68;0.45;;;;;;;3.80;100.00;99982.91;5050770;28;20045;-79
2021/12/30 00:51:24;;;;;;;1.10;0.70;;;;;;;3.77;100.00;99972.66;5047059;28;20048;-79
2021/12/30 00:53:57;;;;;;;0.50;0.50;;;;;;;3.80;100.00;99977.53;5042607;28;20768;-79
2021/12/30 00:56:25;;;;;;;1.00;0.70;;;;;;;3.82;100.00;99970.81;5043988;28;20336;-80
2021/12/30 00:58:54;;;;;;;0.55;0.52;;;;;;;3.85;100.00;99969.50;5040737;28;20679;-79
2021/12/30 01:01:28;;;;;;;0.70;0.60;;;;;;;3.90;100.00;99973.06;5052007;28;20501;-79
2021/12/30 01:04:01;;;;;;;0.60;0.60;;;;;;;3.88;100.00;99972.53;5043557;28;20412;-80
2021/12/30 01:06:35;;;;;;;0.75;0.75;;;;;;;3.93;100.00;99985.22;5040570;28;20064;-79
2021/12/30 01:09:06;;;;;;;1.30;0.50;;;;;;;3.94;100.00;99988.75;5045483;28;20053;-79
2021/12/30 01:11:35;;;;;;;1.52;0.75;;;;;;;3.96;100.00;99992.78;5044264;28;20040;-80
2021/12/30 01:14:16;;;;;;;1.20;0.75;;;;;;;3.98;100.00;99987.16;5044003;28;20049;-79
2021/12/30 01:16:53;;;;;;;1.30;0.70;;;;;;;4.02;100.00;99988.25;5045655;28;20045;-80
2021/12/30 01:22:13;;;;;;;1.08;0.63;;;;;;;4.08;100.00;99971.09;5039967;28;20068;-79
2021/12/30 01:24:47;;;;;;;0.40;0.40;;;;;;;4.07;100.00;99972.16;5043869;28;20049;-79
2021/12/30 01:27:21;;;;;;;0.50;0.50;;;;;;;4.16;100.00;99989.50;5045940;28;20044;-81
2021/12/30 01:29:50;;;;;;;0.90;0.68;;;;;;;4.16;100.00;99997.59;5041365;28;20519;-81
2021/12/30 01:32:23;;;;;;;0.40;0.40;;;;;;;4.20;100.00;100004.09;5047185;28;20060;-80
2021/12/30 01:34:57;;;;;;;0.60;0.35;;;;;;;4.30;100.00;100013.34;5053541;28;20059;-81
2021/12/30 01:37:26;;;;;;;0.50;0.47;;;;;;;4.29;100.00;100009.81;5050630;28;20421;-80
2021/12/30 01:39:59;;;;;;;0.40;0.40;;;;;;;4.35;100.00;100024.97;5043184;28;20535;-80
2021/12/30 01:42:33;;;;;;;0.60;0.52;;;;;;;4.32;100.00;100030.06;5043588;28;20051;-79
2021/12/30 01:45:03;;;;;;;0.40;0.40;;;;;;;4.42;100.00;100027.47;5040524;28;20143;-79
2021/12/30 01:47:37;;;;;;;0.55;0.50;;;;;;;4.52;100.00;100040.22;5058447;28;20041;-80
2021/12/30 01:50:07;;;;;;;0.50;0.50;;;;;;;4.57;100.00;100033.00;5043277;28;20049;-80
2021/12/30 01:52:36;;;;;;;0.85;0.75;;;;;;;4.62;100.00;100047.59;5036472;28;20048;-80
2021/12/30 01:55:05;;;;;;;0.43;0.43;;;;;;;4.62;100.00;100050.28;5037421;28;20049;-80
2021/12/30 01:57:33;;;;;;;0.50;0.50;;;;;;;4.79;100.00;100047.47;5043245;28;20056;-80
2021/12/30 02:00:10;;;;;;;0.73;0.60;;;;;;;4.81;100.00;100043.44;5042389;28;20383;-79
2021/12/30 02:02:43;;;;;;;0.93;0.80;;;;;;;4.86;100.00;100046.19;5043585;28;20409;-80
2021/12/30 02:05:17;;;;;;;0.60;0.50;;;;;;;4.97;100.00;100048.94;5043058;28;20049;-81
2021/12/30 02:07:51;;;;;;;0.60;0.50;;;;;;;4.89;100.00;100051.06;5041651;28;20045;-81
2021/12/30 02:10:25;;;;;;;0.40;0.40;;;;;;;5.06;100.00;100045.50;5044190;28;20548;-81
2021/12/30 02:12:59;;;;;;;0.50;0.50;;;;;;;5.00;100.00;100046.56;5053882;28;20044;-80
2021/12/30 02:15:32;;;;;;;0.50;0.50;;;;;;;5.07;100.00;100049.84;5044025;28;20045;-78
2021/12/30 02:18:01;;;;;;;1.10;0.77;;;;;;;5.13;100.00;100053.38;5044421;28;20041;-80
2021/12/30 02:20:51;;;;;;;0.65;0.55;;;;;;;5.27;100.00;100051.88;5038993;28;20421;-80
2021/12/30 02:23:26;;;;;;;0.50;0.50;;;;;;;5.34;100.00;100057.03;5047612;28;20416;-80
2021/12/30 02:25:57;;;;;;;0.52;0.52;;;;;;;5.36;100.00;100075.66;5044358;28;20052;-80
2021/12/30 02:28:32;;;;;;;0.40;0.40;;;;;;;5.37;100.00;100075.41;5041047;28;20052;-80
2021/12/30 02:31:08;;;;;;;0.45;0.40;;;;;;;5.44;100.00;100072.47;5045475;28;20059;-80
2021/12/30 02:33:42;;;;;;;0.40;0.40;;;;;;;5.57;100.00;100069.31;5041061;28;20075;-80
2021/12/30 02:36:19;;;;;;;0.52;0.52;;;;;;;5.61;100.00;100088.50;5044293;28;20041;-80
2021/12/30 02:38:47;;;;;;;0.75;0.60;;;;;;;5.69;100.00;100082.63;5047251;28;20509;-81
2021/12/30 02:41:19;;;;;;;0.40;0.40;;;;;;;5.66;100.00;100085.03;5045647;28;20064;-79
2021/12/30 02:43:52;;;;;;;0.60;0.60;;;;;;;5.72;100.00;100098.28;5042569;28;20482;-80
2021/12/30 02:46:28;;;;;;;0.57;0.57;;;;;;;5.78;100.00;100097.22;5042462;28;20045;-80
2021/12/30 02:49:02;;;;;;;0.50;0.50;;;;;;;5.84;100.00;100108.06;5061821;28;20417;-81
2021/12/30 02:51:32;;;;;;;0.52;0.50;;;;;;;5.83;100.00;100126.16;5043486;28;20060;-80
2021/12/30 02:54:05;;;;;;;0.50;0.50;;;;;;;5.87;100.00;100121.03;5045397;28;20834;-80
2021/12/30 02:56:39;;;;;;;0.55;0.50;;;;;;;5.93;100.00;100110.00;5041813;28;20049;-80
2021/12/30 02:59:13;;;;;;;0.60;0.60;;;;;;;6.02;100.00;100096.84;5041996;28;20057;-80
2021/12/30 03:01:46;;;;;;;0.45;0.45;;;;;;;6.05;100.00;100112.53;5046654;28;20505;-80
2021/12/30 03:04:14;;;;;;;0.38;0.38;;;;;;;5.99;100.00;100134.38;5046136;28;20053;-80
2021/12/30 03:06:51;;;;;;;0.50;0.50;;;;;;;5.95;100.00;100134.88;5042470;28;20132;-81
2021/12/30 03:09:25;;;;;;;0.60;0.57;;;;;;;6.12;100.00;100164.41;5061711;28;20057;-80
2021/12/30 03:11:58;;;;;;;0.45;0.45;;;;;;;6.08;100.00;100160.63;5036350;28;20299;-79
2021/12/30 03:14:31;;;;;;;0.40;0.40;;;;;;;6.19;100.00;100172.28;5047214;28;20064;-81
2021/12/30 03:17:04;;;;;;;0.50;0.50;;;;;;;6.12;100.00;100175.22;5043134;28;20048;-81
2021/12/30 03:19:32;;;;;;;0.57;0.57;;;;;;;6.30;100.00;100159.66;5040023;28;20056;-80
2021/12/30 03:22:07;;;;;;;0.60;0.52;;;;;;;6.18;100.00;100167.97;5048163;28;20072;-80
2021/12/30 03:24:40;;;;;;;0.40;0.40;;;;;;;6.12;100.00;100177.94;5043019;28;20064;-80
2021/12/30 03:27:14;;;;;;;0.43;0.43;;;;;;;6.18;100.00;100181.47;5049715;28;20048;-83
2021/12/30 03:29:47;;;;;;;0.50;0.50;;;;;;;6.23;100.00;100186.09;5045409;28;20040;-80
2021/12/30 03:32:20;;;;;;;0.40;0.40;;;;;;;6.27;100.00;100179.91;5048261;28;20816;-81
2021/12/30 03:34:53;;;;;;;0.38;0.38;;;;;;;6.35;100.00;100185.88;5047576;28;20052;-81
2021/12/30 03:37:28;;;;;;;0.50;0.50;;;;;;;6.32;100.00;100176.41;5050783;28;20053;-80
2021/12/30 03:40:01;;;;;;;0.50;0.50;;;;;;;6.37;100.00;100176.44;5047500;28;20056;-80
2021/12/30 03:42:30;;;;;;;0.50;0.50;;;;;;;6.34;100.00;100179.66;5048304;28;20408;-80
2021/12/30 03:45:00;;;;;;;0.40;0.40;;;;;;;6.34;100.00;100181.53;5050793;28;20056;-80
2021/12/30 03:47:28;;;;;;;0.50;0.50;;;;;;;6.28;100.00;100181.53;5044086;28;20048;-81
2021/12/30 03:49:56;;;;;;;0.40;0.40;;;;;;;6.17;100.00;100185.25;5048938;28;20056;-79
2021/12/30 03:52:29;;;;;;;0.45;0.40;;;;;;;6.06;100.00;100184.41;5035597;28;20049;-80
2021/12/30 03:55:05;;;;;;;0.40;0.40;;;;;;;6.19;100.00;100198.50;5043932;28;20732;-80
2021/12/30 03:57:38;;;;;;;0.68;0.52;;;;;;;6.04;100.00;100189.22;5040273;28;20055;-80
2021/12/30 04:00:07;;;;;;;0.30;0.30;;;;;;;6.19;100.00;100191.22;5061315;28;20098;-79
2021/12/30 04:02:36;;;;;;;0.30;0.30;;;;;;;5.98;100.00;100168.69;5049500;28;20060;-80
2021/12/30 04:05:10;;;;;;;0.40;0.40;;;;;;;6.05;100.00;100190.03;5040110;28;20049;-81
2021/12/30 04:07:43;;;;;;;0.60;0.40;;;;;;;5.89;100.00;100184.50;5044013;28;20692;-81
2021/12/30 04:10:21;;;;;;;0.40;0.40;;;;;;;5.92;100.00;100181.31;5038848;28;20422;-80
2021/12/30 04:12:51;;;;;;;0.30;0.30;;;;;;;5.99;100.00;100183.00;5046948;28;20056;-82
2021/12/30 04:15:24;;;;;;;0.40;0.40;;;;;;;5.98;100.00;100178.66;5062266;28;20059;-80
2021/12/30 04:17:57;;;;;;;0.77;0.50;;;;;;;6.06;100.00;100180.88;5038598;28;20049;-81
2021/12/30 04:20:25;;;;;;;0.40;0.40;;;;;;;5.95;100.00;100182.66;5051254;28;20064;-80
2021/12/30 04:22:58;;;;;;;0.63;0.50;;;;;;;5.99;100.00;100204.59;5046593;28;20052;-80
2021/12/30 04:25:33;;;;;;;0.40;0.40;;;;;;;5.95;100.00;100206.97;5052554;28;20037;-81
2021/12/30 04:28:02;;;;;;;0.50;0.50;;;;;;;5.79;100.00;100197.97;5043041;28;20041;-80
2021/12/30 04:30:36;;;;;;;0.47;0.45;;;;;;;5.83;100.00;100198.25;5039849;28;20045;-81
2021/12/30 04:33:09;;;;;;;0.40;0.40;;;;;;;5.88;100.00;100204.53;5045308;28;20493;-81
2021/12/30 04:35:42;;;;;;;0.38;0.38;;;;;;;5.92;100.00;100208.31;5038096;28;20060;-81
2021/12/30 04:38:16;;;;;;;0.40;0.40;;;;;;;5.79;100.00;100208.78;5046324;28;20041;-81
2021/12/30 04:40:50;;;;;;;0.40;0.40;;;;;;;5.79;100.00;100206.06;5038547;28;20049;-79
2021/12/30 04:43:19;;;;;;;0.50;0.50;;;;;;;5.74;100.00;100214.13;5043327;28;20056;-81
2021/12/30 04:45:52;;;;;;;0.40;0.40;;;;;;;5.79;100.00;100208.78;5043263;28;20061;-81
2021/12/30 04:48:25;;;;;;;0.52;0.50;;;;;;;5.83;100.00;100195.53;5039668;28;20051;-82
2021/12/30 04:50:58;;;;;;;0.40;0.40;;;;;;;5.79;100.00;100196.06;5068552;28;20048;-80
2021/12/30 04:53:32;;;;;;;0.45;0.45;;;;;;;5.67;100.00;100184.66;5048397;28;20053;-81
2021/12/30 04:56:01;;;;;;;0.40;0.40;;;;;;;5.66;100.00;100183.00;5032208;28;20057;-81
2021/12/30 04:58:35;;;;;;;0.55;0.50;;;;;;;5.58;100.00;100173.53;5031253;28;20037;-80
2021/12/30 05:01:08;;;;;;;0.40;0.40;;;;;;;5.45;100.00;100179.34;5053425;28;20049;-80
2021/12/30 05:03:41;;;;;;;0.40;0.40;;;;;;;5.44;100.00;100193.91;5041988;28;20401;-80
2021/12/30 05:06:15;;;;;;;0.45;0.40;;;;;;;5.42;100.00;100193.38;5041004;28;20049;-81
2021/12/30 05:08:48;;;;;;;0.32;0.32;;;;;;;5.49;100.00;100202.06;5041619;28;20064;-80
2021/12/30 05:11:23;;;;;;;0.50;0.40;;;;;;;5.34;100.00;100204.63;5042555;28;20040;-80
2021/12/30 05:13:56;;;;;;;0.47;0.40;;;;;;;5.34;100.00;100194.63;5028465;28;20064;-79
2021/12/30 05:16:29;;;;;;;0.50;0.50;;;;;;;5.30;100.00;100195.41;5040934;28;20053;-80
2021/12/30 05:19:03;;;;;;;0.40;0.40;;;;;;;5.27;100.00;100186.78;5046575;28;20762;-80
2021/12/30 05:21:36;;;;;;;0.50;0.50;;;;;;;5.55;100.00;100192.09;5040961;28;20417;-81
2021/12/30 05:24:09;;;;;;;0.43;0.43;;;;;;;5.35;100.00;100190.06;5048452;28;20048;-81
2021/12/30 05:26:44;;;;;;;0.30;0.30;;;;;;;5.41;100.00;100192.56;5035976;28;20053;-80
2021/12/30 05:29:17;;;;;;;0.32;0.32;;;;;;;5.47;100.00;100188.03;5039115;28;20060;-80
2021/12/30 05:31:50;;;;;;;0.75;0.35;;;;;;;5.55;100.00;100189.41;5049154;28;20044;-81
2021/12/30 05:34:23;;;;;;;0.50;0.40;;;;;;;5.61;100.00;100189.19;5032951;28;20065;-79
2021/12/30 05:36:51;;;;;;;0.43;0.40;;;;;;;5.66;100.00;100201.09;5033898;28;20049;-82
2021/12/30 05:39:19;;;;;;;0.40;0.30;;;;;;;5.64;100.00;100211.38;5039411;28;20041;-81
2021/12/30 05:41:54;;;;;;;1.35;0.50;;;;;;;5.54;100.00;100220.19;5035054;28;20050;-82
2021/12/30 05:44:27;;;;;;;0.45;0.45;;;;;;;5.67;100.00;100216.22;5044969;28;20044;-81
2021/12/30 05:47:00;;;;;;;0.40;0.40;;;;;;;5.68;100.00;100215.97;5046640;28;20053;-79
2021/12/30 05:49:28;;;;;;;0.40;0.40;;;;;;;5.81;100.00;100233.63;5034515;28;20049;-81
2021/12/30 05:52:02;;;;;;;0.90;0.63;;;;;;;5.86;100.00;100230.94;5045225;28;20053;-81
2021/12/30 05:54:35;;;;;;;0.30;0.30;;;;;;;5.66;100.00;100234.31;5036676;28;20045;-80
2021/12/30 05:57:10;;;;;;;0.30;0.30;;;;;;;5.53;100.00;100235.56;5050946;28;20262;-80
2021/12/30 05:59:43;;;;;;;0.30;0.30;;;;;;;5.61;100.00;100242.38;5040981;28;20045;-80
2021/12/30 06:02:16;;;;;;;0.40;0.40;;;;;;;5.72;100.00;100248.69;5039200;28;20061;-80
2021/12/30 06:04:49;;;;;;;0.50;0.50;;;;;;;5.76;100.00;100249.78;5042207;28;20045;-83
2021/12/30 06:07:23;;;;;;;0.47;0.47;;;;;;;5.79;100.00;100268.19;5047030;28;20796;-81
2021/12/30 06:09:56;;;;;;;0.30;0.30;;;;;;;5.78;100.00;100261.94;5049462;28;20104;-80
2021/12/30 06:12:30;;;;;;;0.60;0.40;;;;;;;5.96;100.00;100266.13;5045884;28;20049;-80
2021/12/30 06:14:59;;;;;;;0.50;0.40;;;;;;;5.88;100.00;100269.34;5051467;28;20057;-80
2021/12/30 06:17:33;;;;;;;0.40;0.40;;;;;;;6.01;100.00;100275.38;5044306;28;20051;-81
2021/12/30 06:20:09;;;;;;;0.68;0.55;;;;;;;5.97;100.00;100275.06;5045353;28;20469;-80
2021/12/30 06:22:37;;;;;;;0.40;0.40;;;;;;;5.93;100.00;100257.75;5050418;28;20096;-81
2021/12/30 06:25:12;;;;;;;0.40;0.40;;;;;;;6.02;100.00;100274.31;5047248;28;20083;-80
2021/12/30 06:27:46;;;;;;;0.65;0.40;;;;;;;6.04;100.00;100269.47;5046426;28;20056;-80
2021/12/30 06:30:20;;;;;;;0.43;0.35;;;;;;;5.99;100.00;100272.13;5041263;28;20413;-80
2021/12/30 06:32:48;;;;;;;0.40;0.40;;;;;;;6.08;100.00;100278.69;5043104;28;20049;-80
2021/12/30 06:35:21;;;;;;;0.50;0.50;;;;;;;5.97;100.00;100275.06;5044522;28;20706;-80
2021/12/30 06:37:54;;;;;;;0.40;0.40;;;;;;;6.04;100.00;100270.28;5048960;28;20057;-79
2021/12/30 06:40:22;;;;;;;0.50;0.50;;;;;;;6.04;100.00;100270.28;5042809;28;20060;-81
2021/12/30 06:42:57;;;;;;;0.52;0.50;;;;;;;5.97;100.00;100269.66;5042389;28;20079;-80
2021/12/30 06:45:30;;;;;;;0.85;0.57;;;;;;;5.94;100.00;100270.97;5041048;28;20049;-81
2021/12/30 06:48:05;;;;;;;0.63;0.40;;;;;;;6.09;100.00;100259.50;5044059;28;20064;-81
2021/12/30 06:50:34;;;;;;;0.68;0.55;;;;;;;5.94;100.00;100259.38;5047036;28;20040;-81
2021/12/30 06:53:07;;;;;;;0.50;0.50;;;;;;;6.01;100.00;100270.78;5037547;28;20037;-81
2021/12/30 06:55:42;;;;;;;0.50;0.50;;;;;;;6.07;100.00;100277.84;5047598;28;20048;-81
2021/12/30 06:58:17;;;;;;;0.47;0.45;;;;;;;6.11;100.00;100288.97;5044935;28;20049;-80
2021/12/30 07:00:46;;;;;;;0.40;0.40;;;;;;;6.11;100.00;100288.97;5040585;28;20052;-81
2021/12/30 07:03:15;;;;;;;0.98;0.50;;;;;;;6.23;100.00;100289.59;5051580;28;20052;-80
2021/12/30 07:05:43;;;;;;;0.50;0.50;;;;;;;6.09;100.00;100288.41;5046022;28;20060;-80
2021/12/30 07:08:16;;;;;;;0.50;0.50;;;;;;;6.12;100.00;100298.69;5041583;28;20049;-81
2021/12/30 07:10:50;;;;;;;0.80;0.60;;;;;;;6.39;100.00;100285.06;5044458;28;20041;-80
2021/12/30 07:13:20;;;;;;;0.50;0.50;;;;;;;6.27;100.00;100279.06;5044414;28;20064;-80
2021/12/30 07:15:53;;;;;;;0.50;0.50;;;;;;;6.37;100.00;100271.03;5044696;28;20500;-81
2021/12/30 07:18:26;;;;;;;0.70;0.55;;;;;;;6.22;100.00;100269.03;5046200;28;20053;-80
2021/12/30 07:20:59;;;;;;;0.52;0.50;;;;;;;6.29;100.00;100276.91;5044207;28;20048;-81
2021/12/30 07:23:33;;;;;;;0.52;0.52;;;;;;;6.27;100.00;100274.47;5042499;28;20045;-81
2021/12/30 07:26:06;;;;;;;0.68;0.60;;;;;;;6.39;100.00;100290.47;5045373;28;20044;-80
2021/12/30 07:28:35;;;;;;;0.50;0.50;;;;;;;6.40;100.00;100302.94;5045915;28;20049;-80
2021/12/30 07:31:09;;;;;;;0.60;0.60;;;;;;;6.36;100.00;100311.84;5039322;28;20057;-82
2021/12/30 07:33:42;;;;;;;0.82;0.50;;;;;;;6.38;100.00;100305.09;5039674;28;20068;-80
2021/12/30 07:36:15;;;;;;;0.40;0.40;;;;;;;6.29;100.00;100288.53;5047244;28;20037;-80
2021/12/30 07:38:43;;;;;;;0.70;0.55;;;;;;;6.40;100.00;100288.59;5050446;28;20048;-81
2021/12/30 07:41:17;;;;;;;0.68;0.60;;;;;;;6.39;100.00;100295.09;5049635;28;20490;-80
2021/12/30 07:43:52;;;;;;;0.57;0.50;;;;;;;6.44;100.00;100287.81;5041896;28;20053;-80
2021/12/30 07:46:20;;;;;;;0.80;0.60;;;;;;;6.39;100.00;100289.69;5044155;28;20041;-80
2021/12/30 07:48:48;;;;;;;0.55;0.50;;;;;;;6.33;100.00;100310.47;5044841;28;20847;-80
2021/12/30 07:51:16;;;;;;;0.50;0.50;;;;;;;6.35;100.00;100318.31;5043614;28;20060;-80
2021/12/30 07:53:50;;;;;;;0.60;0.60;;;;;;;6.37;100.00;100319.66;5043709;28;20048;-79
2021/12/30 07:56:23;;;;;;;0.85;0.52;;;;;;;6.40;100.00;100308.34;5042807;28;20045;-80
2021/12/30 07:58:58;;;;;;;0.40;0.40;;;;;;;6.46;100.00;100301.06;5042151;28;20037;-79
2021/12/30 08:01:31;;;;;;;0.40;0.40;;;;;;;6.40;100.00;100310.22;5049380;28;20053;-80
2021/12/30 08:04:00;;;;;;;0.57;0.57;;;;;;;6.38;100.00;100293.44;5044194;28;20445;-79
2021/12/30 08:06:33;;;;;;;0.50;0.50;;;;;;;6.39;100.00;100304.00;5036587;28;20430;-80
2021/12/30 08:09:07;;;;;;;0.60;0.52;;;;;;;6.35;100.00;100323.72;5041182;28;20087;-79
2021/12/30 08:11:40;;;;;;;0.60;0.50;;;;;;;6.33;100.00;100313.16;5050664;28;20040;-81
2021/12/30 08:14:15;;;;;;;0.57;0.50;;;;;;;6.47;100.00;100314.31;5043772;28;20053;-81
2021/12/30 08:16:48;;;;;;;0.60;0.50;;;;;;;6.46;100.00;100304.59;5045564;28;20051;-80
2021/12/30 08:19:16;;;;;;;0.40;0.40;;;;;;;6.53;100.00;100319.75;5042698;28;20049;-80
2021/12/30 08:21:49;;;;;;;0.93;0.60;;;;;;;6.48;100.00;100320.56;5045021;28;20563;-81
2021/12/30 08:24:17;;;;;;;0.75;0.60;;;;;;;6.59;100.00;100324.13;5042181;28;20061;-80
2021/12/30 08:26:45;;;;;;;0.60;0.50;;;;;;;6.66;100.00;100319.31;5039448;28;20049;-79
2021/12/30 08:29:16;;;;;;;0.57;0.57;;;;;;;6.61;100.00;100324.69;5046496;28;20048;-79
2021/12/30 08:31:49;;;;;;;0.65;0.50;;;;;;;6.63;100.00;100336.06;5048786;28;20044;-81
2021/12/30 08:34:23;;;;;;;0.40;0.40;;;;;;;6.71;100.00;100340.13;5044185;28;20048;-81
2021/12/30 08:36:56;;;;;;;0.45;0.45;;;;;;;6.73;100.00;100338.00;5042861;28;20525;-80
2021/12/30 08:39:34;;;;;;;0.60;0.60;;;;;;;6.71;100.00;100332.84;5041688;28;20053;-81
2021/12/30 08:42:04;;;;;;;0.60;0.60;;;;;;;6.73;100.00;100327.97;5036533;28;20053;-80
2021/12/30 08:44:38;;;;;;;0.70;0.60;;;;;;;6.74;100.00;100339.59;5034638;28;20056;-80
2021/12/30 08:47:12;;;;;;;0.65;0.60;;;;;;;6.76;100.00;100329.34;5032244;28;20045;-81
2021/12/30 08:49:46;;;;;;;0.63;0.40;;;;;;;6.74;100.00;100328.78;5032844;28;20057;-81
2021/12/30 08:52:21;;;;;;;0.57;0.50;;;;;;;6.74;100.00;100328.78;5029456;28;20049;-81
2021/12/30 08:54:56;;;;;;;0.50;0.50;;;;;;;6.79;100.00;100326.13;5031541;28;20555;-81
2021/12/30 08:57:24;;;;;;;0.50;0.45;;;;;;;6.84;100.00;100334.25;5046559;28;20061;-83
2021/12/30 09:00:00;;;;;;;0.40;0.40;;;;;;;6.93;100.00;100338.09;5036480;28;20693;-81
2021/12/30 09:02:28;;;;;;;0.55;0.47;;;;;;;6.86;100.00;100332.09;5032906;28;20075;-81
2021/12/30 09:05:01;;;;;;;0.43;0.43;;;;;;;6.87;100.00;100325.63;5032898;28;20045;-80
2021/12/30 09:07:29;;;;;;;0.52;0.50;;;;;;;7.11;100.00;100342.22;5028165;28;20045;-81
2021/12/30 09:10:04;;;;;;;0.60;0.50;;;;;;;7.08;100.00;100334.63;5024268;28;20741;-82
2021/12/30 09:12:37;;;;;;;0.70;0.60;;;;;;;7.12;100.00;100333.00;5029328;28;20057;-81
2021/12/30 09:15:14;;;;;;;0.50;0.50;;;;;;;7.09;100.00;100322.72;5027878;28;20053;-81
2021/12/30 09:17:48;;;;;;;0.50;0.50;;;;;;;7.10;100.00;100326.28;5023184;28;20045;-81
2021/12/30 09:20:23;;;;;;;0.65;0.40;;;;;;;7.11;100.00;100320.59;5026830;28;20048;-81
2021/12/30 09:22:57;;;;;;;0.43;0.40;;;;;;;7.21;100.00;100324.38;5033827;28;20052;-81
2021/12/30 09:25:31;;;;;;;0.65;0.50;;;;;;;7.20;100.00;100320.88;5020604;28;21188;-80
2021/12/30 09:28:00;;;;;;;0.65;0.60;;;;;;;7.17;100.00;100318.72;5023501;28;20056;-81
2021/12/30 09:30:34;;;;;;;0.60;0.60;;;;;;;7.24;100.00;100311.13;5025661;28;20063;-79
2021/12/30 09:33:09;;;;;;;0.88;0.70;;;;;;;7.29;100.00;100321.16;5031376;28;20053;-80
2021/12/30 09:35:37;;;;;;;0.47;0.47;;;;;;;7.32;100.00;100309.81;5039264;28;20067;-81
2021/12/30 09:38:10;;;;;;;0.98;0.60;;;;;;;7.35;100.00;100312.00;5025214;28;20052;-80
2021/12/30 09:40:46;;;;;;;0.47;0.47;;;;;;;7.45;100.00;100320.13;5023211;28;20060;-80
2021/12/30 09:43:14;;;;;;;0.43;0.40;;;;;;;7.40;100.00;100297.63;5027130;28;20061;-79
2021/12/30 09:45:50;;;;;;;0.50;0.50;;;;;;;7.45;100.00;100314.69;5025355;28;20049;-81
2021/12/30 09:48:23;;;;;;;0.40;0.40;;;;;;;7.32;100.00;100316.03;5021052;28;20048;-81
2021/12/30 09:50:58;;;;;;;0.63;0.40;;;;;;;7.30;100.00;100309.25;5024147;28;20056;-80
2021/12/30 09:53:31;;;;;;;0.40;0.40;;;;;;;7.32;100.00;100323.34;5027913;28;20041;-80
2021/12/30 09:56:05;;;;;;;0.40;0.40;;;;;;;7.43;100.00;100307.94;5022224;28;20064;-80
2021/12/30 09:58:38;;;;;;;0.55;0.55;;;;;;;7.39;100.00;100310.38;5026599;28;20053;-80
2021/12/30 10:01:08;;;;;;;0.80;0.55;;;;;;;7.41;100.00;100302.78;5024781;28;20056;-81
2021/12/30 10:03:36;;;;;;;0.80;0.60;;;;;;;7.44;100.00;100296.84;5031070;28;20045;-79
2021/12/30 10:06:13;;;;;;;0.50;0.50;;;;;;;7.43;100.00;100297.94;5024429;28;20053;-80
2021/12/30 10:08:57;;;;;;;0.70;0.60;;;;;;;7.37;100.00;100298.97;5030722;28;20429;-80
2021/12/30 10:11:30;;;;;;;0.47;0.47;;;;;;;7.25;100.00;100276.75;5027582;28;20068;-82
2021/12/30 10:14:00;;;;;;;0.57;0.57;;;;;;;7.34;100.00;100277.88;5025273;28;20060;-81
2021/12/30 10:16:35;;;;;;;0.50;0.50;;;;;;;7.36;100.00;100297.38;5026440;28;20049;-79
2021/12/30 10:19:10;;;;;;;0.70;0.55;;;;;;;7.34;100.00;100293.31;5028602;28;20052;-80
2021/12/30 10:21:41;;;;;;;0.50;0.45;;;;;;;7.32;100.00;100294.38;5029322;28;20049;-81
2021/12/30 10:24:11;;;;;;;0.43;0.43;;;;;;;7.33;100.00;100289.78;5028465;28;20059;-82
2021/12/30 10:26:49;;;;;;;0.50;0.47;;;;;;;7.31;100.00;100295.47;5028296;28;21619;-81
2021/12/30 10:29:18;;;;;;;0.50;0.50;;;;;;;7.31;100.00;100279.22;5031745;28;20057;-80
2021/12/30 10:31:53;;;;;;;0.80;0.50;;;;;;;7.40;100.00;100278.69;5030247;28;20067;-81
2021/12/30 10:34:22;;;;;;;0.30;0.30;;;;;;;7.45;100.00;100282.22;5026425;28;21263;-81
2021/12/30 10:36:55;;;;;;;0.75;0.57;;;;;;;7.47;100.00;100266.53;5041926;28;20052;-81
2021/12/30 10:39:30;;;;;;;0.55;0.40;;;;;;;7.51;100.00;100271.41;5031322;28;20057;-81
2021/12/30 10:42:19;;;;;;;0.40;0.40;;;;;;;7.63;100.00;100269.25;5026545;28;20825;-81
2021/12/30 10:44:55;;;;;;;0.40;0.40;;;;;;;7.54;100.00;100262.72;5026742;28;20555;-82
2021/12/30 10:47:31;;;;;;;0.63;0.50;;;;;;;7.49;100.00;100247.31;5027703;28;20052;-81
2021/12/30 10:50:02;;;;;;;0.30;0.30;;;;;;;7.57;100.00;100265.72;5017818;28;20076;-82
2021/12/30 10:52:31;;;;;;;0.70;0.50;;;;;;;7.53;100.00;100248.38;5022215;28;20044;-81
2021/12/30 10:55:12;;;;;;;0.65;0.50;;;;;;;7.65;100.00;100251.66;5029033;28;20037;-81
2021/12/30 10:57:45;;;;;;;0.45;0.40;;;;;;;7.67;100.00;100259.50;5021491;28;20060;-81
2021/12/30 11:00:26;;;;;;;0.30;0.30;;;;;;;7.66;100.00;100258.69;5025476;28;20056;-81
2021/12/30 11:03:24;;;;;;;0.40;0.40;;;;;;;7.71;100.00;100263.28;5024082;28;20056;-81
2021/12/30 11:06:11;;;;;;;0.35;0.35;;;;;;;7.73;100.00;100250.28;5025479;28;20053;-81
2021/12/30 11:08:39;;;;;;;0.40;0.38;;;;;;;7.68;100.00;100241.34;5028267;28;21351;-80
2021/12/30 11:11:25;;;;;;;0.28;0.28;;;;;;;7.67;100.00;100227.00;5022726;28;20529;-81
2021/12/30 11:14:03;;;;;;;0.50;0.40;;;;;;;7.63;100.00;100228.63;5029591;28;20707;-81
2021/12/30 11:16:57;;;;;;;0.40;0.40;;;;;;;7.57;100.00;100225.09;5026366;28;20049;-80
2021/12/30 11:19:28;;;;;;;0.30;0.30;;;;;;;7.73;100.00;100235.94;5028132;28;20060;-80
2021/12/30 11:22:04;;;;;;;0.30;0.30;;;;;;;7.86;100.00;100234.56;5026479;28;20056;-81
2021/12/30 11:24:39;;;;;;;0.35;0.35;;;;;;;7.88;100.00;100235.91;5026642;28;20049;-82
2021/12/30 11:27:14;;;;;;;0.30;0.30;;;;;;;7.97;100.00;100241.59;5031985;28;20792;-81
2021/12/30 11:29:49;;;;;;;0.40;0.40;;;;;;;7.85;100.00;100225.63;5026096;28;20048;-82
2021/12/30 11:32:24;;;;;;;0.52;0.30;;;;;;;7.91;100.00;100239.97;5024849;28;20052;-81
2021/12/30 11:35:01;;;;;;;0.30;0.30;;;;;;;8.02;100.00;100229.94;5025963;28;20053;-80
2021/12/30 11:37:36;;;;;;;0.35;0.35;;;;;;;7.96;100.00;100212.88;5025321;28;20060;-80
2021/12/30 11:40:14;;;;;;;0.30;0.30;;;;;;;7.99;100.00;100223.97;5025993;28;20101;-80
2021/12/30 11:42:52;;;;;;;0.30;0.30;;;;;;;8.07;100.00;100221.81;5026358;28;20831;-80
2021/12/30 11:45:28;;;;;;;0.30;0.30;;;;;;;8.07;100.00;100216.38;5026297;28;20060;-80
2021/12/30 11:47:58;;;;;;;0.30;0.30;;;;;;;8.15;100.00;100216.63;5022743;28;20493;-81
2021/12/30 11:50:37;;;;;;;0.30;0.30;;;;;;;8.09;100.00;100223.16;5037429;28;20053;-80
2021/12/30 11:53:08;;;;;;;0.20;0.20;;;;;;;8.15;100.00;100213.13;5032354;28;20060;-80
2021/12/30 11:56:00;;;;;;;0.30;0.30;;;;;;;8.16;100.00;100201.16;5028108;28;20715;-80